EXS341 EGKK-LEAL
Flight info
| Callsign | EXS341 |
|---|---|
| Flight time | N/A |
| Altitude | 35000 |
| Route | SFD Y47 BENBO UY47 DRAKE L151 SITET UN859 SOPIL/N0461F370 DCT BALAN DCT LMG DCT PIMQO DCT AGN DCT ANETO DCT POSSY DCT XIMPE DCT RIMES N860 VLC |
| Aircraft | B738/M-SDE2E3FGHIRWXY/LB1 |
Departure
| Time | 2026-05-04 19:08 |
|---|---|
| Airport | London Gatwick Airport (EGKK) |
Arrival
| Time | N/A |
|---|---|
| Airport | Alicante-Elche Miguel Hernández Airport (LEAL) |
| Time | Latitude | Longitude | Altitude | Speed | Heading |
|---|---|---|---|---|---|
| 2026-05-04 18:26 | 51.15442 | -0.17707 | 204 ft | 0 kts | 167° |
| 2026-05-04 18:47 | 51.15456 | -0.17711 | 212 ft | 4 kts | 167° |
| 2026-05-04 18:48 | 51.15478 | -0.17719 | 212 ft | 4 kts | 171° |
| 2026-05-04 18:48 | 51.15502 | -0.17716 | 211 ft | 4 kts | 216° |
| 2026-05-04 18:48 | 51.15516 | -0.17684 | 216 ft | 4 kts | 255° |
| 2026-05-04 18:48 | 51.15521 | -0.17645 | 214 ft | 3 kts | 257° |
| 2026-05-04 18:49 | 51.15522 | -0.17639 | 213 ft | 1 kts | 257° |
| 2026-05-04 18:52 | 51.15516 | -0.17686 | 216 ft | 7 kts | 257° |
| 2026-05-04 18:52 | 51.15504 | -0.17773 | 211 ft | 8 kts | 257° |
| 2026-05-04 18:53 | 51.15492 | -0.17860 | 204 ft | 8 kts | 257° |
| 2026-05-04 18:53 | 51.15480 | -0.17944 | 208 ft | 8 kts | 257° |
| 2026-05-04 18:53 | 51.15469 | -0.18025 | 204 ft | 7 kts | 257° |
| 2026-05-04 18:53 | 51.15458 | -0.18103 | 210 ft | 7 kts | 257° |
| 2026-05-04 18:54 | 51.15448 | -0.18176 | 213 ft | 6 kts | 257° |
| 2026-05-04 18:54 | 51.15446 | -0.18189 | 210 ft | 0 kts | 261° |
| 2026-05-04 18:55 | 51.15439 | -0.18243 | 204 ft | 9 kts | 254° |
| 2026-05-04 18:55 | 51.15322 | -0.18257 | 204 ft | 9 kts | 167° |
| 2026-05-04 18:55 | 51.15283 | -0.18242 | 208 ft | 0 kts | 166° |
| 2026-05-04 18:56 | 51.15282 | -0.18242 | 208 ft | 1 kts | 166° |
| 2026-05-04 18:56 | 51.15242 | -0.18229 | 207 ft | 4 kts | 167° |
| 2026-05-04 18:56 | 51.15215 | -0.18229 | 210 ft | 4 kts | 201° |
| 2026-05-04 18:56 | 51.15191 | -0.18285 | 214 ft | 11 kts | 258° |
| 2026-05-04 18:57 | 51.15174 | -0.18419 | 208 ft | 12 kts | 259° |
| 2026-05-04 18:57 | 51.15156 | -0.18552 | 210 ft | 12 kts | 255° |
| 2026-05-04 18:57 | 51.15138 | -0.18682 | 206 ft | 12 kts | 257° |
| 2026-05-04 18:57 | 51.15120 | -0.18807 | 207 ft | 12 kts | 259° |
| 2026-05-04 18:58 | 51.15104 | -0.18931 | 206 ft | 11 kts | 258° |
| 2026-05-04 18:58 | 51.15085 | -0.19069 | 214 ft | 14 kts | 259° |
| 2026-05-04 18:58 | 51.15065 | -0.19220 | 204 ft | 14 kts | 257° |
| 2026-05-04 18:58 | 51.15046 | -0.19355 | 207 ft | 21 kts | 259° |
| 2026-05-04 18:59 | 51.15008 | -0.19636 | 208 ft | 13 kts | 256° |
| 2026-05-04 18:59 | 51.15002 | -0.19682 | 209 ft | 0 kts | 258° |
| 2026-05-04 18:59 | 51.14999 | -0.19704 | 209 ft | 8 kts | 256° |
| 2026-05-04 19:00 | 51.14991 | -0.19743 | 204 ft | 0 kts | 253° |
| 2026-05-04 19:00 | 51.14991 | -0.19744 | 204 ft | 1 kts | 253° |
| 2026-05-04 19:00 | 51.14980 | -0.19814 | 211 ft | 8 kts | 257° |
| 2026-05-04 19:01 | 51.14970 | -0.19901 | 211 ft | 8 kts | 260° |
| 2026-05-04 19:01 | 51.14957 | -0.19986 | 214 ft | 8 kts | 256° |
| 2026-05-04 19:01 | 51.14937 | -0.20095 | 207 ft | 8 kts | 240° |
| 2026-05-04 19:01 | 51.14926 | -0.20149 | 206 ft | 8 kts | 268° |
| 2026-05-04 19:02 | 51.14923 | -0.20236 | 204 ft | 8 kts | 262° |
| 2026-05-04 19:02 | 51.14911 | -0.20319 | 211 ft | 7 kts | 257° |
| 2026-05-04 19:02 | 51.14900 | -0.20398 | 204 ft | 7 kts | 257° |
| 2026-05-04 19:02 | 51.14890 | -0.20475 | 204 ft | 7 kts | 257° |
| 2026-05-04 19:03 | 51.14879 | -0.20550 | 206 ft | 7 kts | 258° |
| 2026-05-04 19:03 | 51.14862 | -0.20619 | 207 ft | 7 kts | 230° |
| 2026-05-04 19:03 | 51.14828 | -0.20655 | 206 ft | 4 kts | 206° |
| 2026-05-04 19:03 | 51.14798 | -0.20678 | 205 ft | 5 kts | 208° |
| 2026-05-04 19:04 | 51.14770 | -0.20703 | 210 ft | 0 kts | 208° |
| 2026-05-04 19:04 | 51.14762 | -0.20729 | 211 ft | 7 kts | 251° |
| 2026-05-04 19:04 | 51.14750 | -0.20824 | 211 ft | 11 kts | 259° |
| 2026-05-04 19:04 | 51.14733 | -0.20949 | 204 ft | 11 kts | 259° |
| 2026-05-04 19:05 | 51.14718 | -0.21053 | 207 ft | 6 kts | 253° |
| 2026-05-04 19:05 | 51.14708 | -0.21122 | 211 ft | 7 kts | 258° |
| 2026-05-04 19:05 | 51.14699 | -0.21193 | 204 ft | 6 kts | 258° |
| 2026-05-04 19:05 | 51.14690 | -0.21261 | 207 ft | 6 kts | 258° |
| 2026-05-04 19:06 | 51.14668 | -0.21320 | 211 ft | 6 kts | 213° |
| 2026-05-04 19:06 | 51.14628 | -0.21329 | 204 ft | 6 kts | 170° |
| 2026-05-04 19:06 | 51.14588 | -0.21312 | 208 ft | 6 kts | 164° |
| 2026-05-04 19:06 | 51.14552 | -0.21282 | 213 ft | 6 kts | 143° |
| 2026-05-04 19:07 | 51.14524 | -0.21229 | 212 ft | 7 kts | 118° |
| 2026-05-04 19:07 | 51.14522 | -0.21153 | 205 ft | 6 kts | 77° |
| 2026-05-04 19:07 | 51.14524 | -0.21142 | 205 ft | 0 kts | 76° |
| 2026-05-04 19:07 | 51.14563 | -0.20875 | 207 ft | 65 kts | 76° |
| 2026-05-04 19:08 | 51.14720 | -0.19736 | 211 ft | 140 kts | 77° |
| 2026-05-04 19:08 | 51.14980 | -0.17991 | 557 ft | 174 kts | 77° |
| 2026-05-04 19:08 | 51.15243 | -0.16007 | 1315 ft | 195 kts | 77° |
| 2026-05-04 19:08 | 51.15516 | -0.13838 | 2133 ft | 198 kts | 77° |
| 2026-05-04 19:09 | 51.15810 | -0.11599 | 2688 ft | 213 kts | 77° |
| 2026-05-04 19:09 | 51.16078 | -0.09210 | 3341 ft | 223 kts | 87° |
| 2026-05-04 19:09 | 51.15637 | -0.06841 | 4041 ft | 232 kts | 123° |
| 2026-05-04 19:09 | 51.14358 | -0.05226 | 4633 ft | 245 kts | 156° |
| 2026-05-04 19:10 | 51.12760 | -0.04493 | 5309 ft | 250 kts | 167° |
| 2026-05-04 19:10 | 51.11047 | -0.03948 | 5841 ft | 251 kts | 168° |
| 2026-05-04 19:10 | 51.09315 | -0.03429 | 5988 ft | 252 kts | 168° |
| 2026-05-04 19:10 | 51.07578 | -0.02711 | 5999 ft | 269 kts | 163° |
| 2026-05-04 19:11 | 51.05822 | -0.01865 | 5991 ft | 274 kts | 162° |
| 2026-05-04 19:11 | 51.04048 | -0.01004 | 6004 ft | 274 kts | 163° |
| 2026-05-04 19:11 | 51.02211 | -0.00115 | 6005 ft | 274 kts | 163° |
| 2026-05-04 19:11 | 51.00413 | 0.00745 | 6016 ft | 274 kts | 163° |
| 2026-05-04 19:12 | 50.98581 | 0.01613 | 6015 ft | 274 kts | 163° |
| 2026-05-04 19:12 | 50.94924 | 0.03341 | 6007 ft | 273 kts | 163° |
| 2026-05-04 19:12 | 50.93103 | 0.04200 | 6009 ft | 274 kts | 163° |
| 2026-05-04 19:13 | 50.91278 | 0.05060 | 6015 ft | 274 kts | 163° |
| 2026-05-04 19:13 | 50.89468 | 0.05912 | 6009 ft | 274 kts | 163° |
| 2026-05-04 19:13 | 50.87613 | 0.06784 | 6009 ft | 274 kts | 163° |
| 2026-05-04 19:13 | 50.85785 | 0.07645 | 6004 ft | 275 kts | 163° |
| 2026-05-04 19:14 | 50.83972 | 0.08499 | 6003 ft | 275 kts | 163° |
| 2026-05-04 19:14 | 50.82136 | 0.09363 | 6006 ft | 275 kts | 163° |
| 2026-05-04 19:14 | 50.80283 | 0.10234 | 6000 ft | 275 kts | 163° |
| 2026-05-04 19:14 | 50.78449 | 0.11095 | 6006 ft | 275 kts | 163° |